sensor_id;sensor_type;location;lat;lon;timestamp;pressure;altitude;pressure_sealevel;temperature;humidity
62600;BME280;48671;48.922;2.346;2023-08-17T00:01:51;101512.59;;;25.60;51.21
62600;BME280;48671;48.922;2.346;2023-08-17T00:04:17;101522.41;;;25.60;51.60
62600;BME280;48671;48.922;2.346;2023-08-17T00:06:42;101516.69;;;25.64;51.63
62600;BME280;48671;48.922;2.346;2023-08-17T00:09:08;101522.72;;;25.66;51.03
62600;BME280;48671;48.922;2.346;2023-08-17T00:11:35;101524.25;;;25.69;51.86
62600;BME280;48671;48.922;2.346;2023-08-17T00:14:00;101518.09;;;25.68;50.94
62600;BME280;48671;48.922;2.346;2023-08-17T00:16:26;101518.66;;;25.62;51.88
62600;BME280;48671;48.922;2.346;2023-08-17T00:18:51;101515.13;;;25.52;51.91
62600;BME280;48671;48.922;2.346;2023-08-17T00:21:16;101518.63;;;25.53;51.62
62600;BME280;48671;48.922;2.346;2023-08-17T00:23:42;101523.13;;;25.52;51.80
62600;BME280;48671;48.922;2.346;2023-08-17T00:26:08;101522.28;;;25.52;51.92
62600;BME280;48671;48.922;2.346;2023-08-17T00:28:34;101516.66;;;25.45;51.93
62600;BME280;48671;48.922;2.346;2023-08-17T00:31:00;101512.72;;;25.49;51.76
62600;BME280;48671;48.922;2.346;2023-08-17T00:33:25;101506.69;;;25.47;51.57
62600;BME280;48671;48.922;2.346;2023-08-17T00:35:50;101515.66;;;25.46;51.69
62600;BME280;48671;48.922;2.346;2023-08-17T00:38:16;101505.84;;;25.46;51.99
62600;BME280;48671;48.922;2.346;2023-08-17T00:40:41;101525.22;;;25.49;51.67
62600;BME280;48671;48.922;2.346;2023-08-17T00:43:07;101523.84;;;25.54;51.66
62600;BME280;48671;48.922;2.346;2023-08-17T00:45:32;101521.84;;;25.46;51.76
62600;BME280;48671;48.922;2.346;2023-08-17T00:47:58;101523.66;;;25.46;51.63
62600;BME280;48671;48.922;2.346;2023-08-17T00:50:24;101523.38;;;25.49;51.79
62600;BME280;48671;48.922;2.346;2023-08-17T00:52:51;101511.59;;;25.42;51.71
62600;BME280;48671;48.922;2.346;2023-08-17T00:55:17;101515.38;;;25.39;52.40
62600;BME280;48671;48.922;2.346;2023-08-17T00:57:43;101515.38;;;25.39;51.98
62600;BME280;48671;48.922;2.346;2023-08-17T01:00:12;101522.06;;;25.34;52.58
62600;BME280;48671;48.922;2.346;2023-08-17T01:02:40;101521.22;;;25.23;53.36
62600;BME280;48671;48.922;2.346;2023-08-17T01:05:06;101518.50;;;25.14;52.26
62600;BME280;48671;48.922;2.346;2023-08-17T01:07:32;101517.97;;;25.20;52.35
62600;BME280;48671;48.922;2.346;2023-08-17T01:09:57;101518.69;;;25.22;52.71
62600;BME280;48671;48.922;2.346;2023-08-17T01:12:31;101509.59;;;25.25;52.50
62600;BME280;48671;48.922;2.346;2023-08-17T01:15:14;101509.63;;;25.34;52.40
62600;BME280;48671;48.922;2.346;2023-08-17T01:17:54;101511.31;;;25.35;52.10
62600;BME280;48671;48.922;2.346;2023-08-17T01:20:23;101518.59;;;25.43;52.22
62600;BME280;48671;48.922;2.346;2023-08-17T01:22:50;101511.19;;;25.46;52.47
62600;BME280;48671;48.922;2.346;2023-08-17T01:25:16;101515.94;;;25.43;51.98
62600;BME280;48671;48.922;2.346;2023-08-17T01:27:45;101506.97;;;25.44;52.13
62600;BME280;48671;48.922;2.346;2023-08-17T01:30:14;101506.13;;;25.43;52.30
62600;BME280;48671;48.922;2.346;2023-08-17T01:33:03;101515.94;;;25.43;51.87
62600;BME280;48671;48.922;2.346;2023-08-17T01:37:58;101518.50;;;25.14;53.98
62600;BME280;48671;48.922;2.346;2023-08-17T01:40:27;101509.75;;;25.02;54.28
62600;BME280;48671;48.922;2.346;2023-08-17T01:42:54;101502.44;;;24.94;54.08
62600;BME280;48671;48.922;2.346;2023-08-17T01:45:22;101517.41;;;24.86;54.32
62600;BME280;48671;48.922;2.346;2023-08-17T01:47:48;101517.19;;;24.77;54.39
62600;BME280;48671;48.922;2.346;2023-08-17T01:50:14;101523.72;;;24.64;54.85
62600;BME280;48671;48.922;2.346;2023-08-17T01:52:39;101523.13;;;24.60;54.62
62600;BME280;48671;48.922;2.346;2023-08-17T01:55:05;101509.38;;;24.55;55.08
62600;BME280;48671;48.922;2.346;2023-08-17T01:57:30;101520.28;;;24.52;55.48
62600;BME280;48671;48.922;2.346;2023-08-17T01:59:55;101528.50;;;24.49;56.66
62600;BME280;48671;48.922;2.346;2023-08-17T02:02:21;101516.44;;;24.45;56.08
62600;BME280;48671;48.922;2.346;2023-08-17T02:04:47;101526.03;;;24.36;56.17
62600;BME280;48671;48.922;2.346;2023-08-17T02:07:13;101526.41;;;24.32;56.16
62600;BME280;48671;48.922;2.346;2023-08-17T02:09:38;101518.69;;;24.28;56.41
62600;BME280;48671;48.922;2.346;2023-08-17T02:12:04;101517.13;;;24.26;56.24
62600;BME280;48671;48.922;2.346;2023-08-17T02:14:29;101520.09;;;24.33;55.96
62600;BME280;48671;48.922;2.346;2023-08-17T02:16:54;101520.56;;;24.38;55.64
62600;BME280;48671;48.922;2.346;2023-08-17T02:19:20;101519.47;;;24.40;56.21
62600;BME280;48671;48.922;2.346;2023-08-17T02:21:45;101529.50;;;24.48;55.57
62600;BME280;48671;48.922;2.346;2023-08-17T02:24:10;101530.66;;;24.55;55.64
62600;BME280;48671;48.922;2.346;2023-08-17T02:26:36;101518.59;;;24.51;55.19
62600;BME280;48671;48.922;2.346;2023-08-17T02:29:03;101525.53;;;24.63;55.49
62600;BME280;48671;48.922;2.346;2023-08-17T02:31:29;101529.88;;;24.64;55.47
62600;BME280;48671;48.922;2.346;2023-08-17T02:33:54;101537.78;;;24.55;55.24
62600;BME280;48671;48.922;2.346;2023-08-17T02:36:23;101536.38;;;24.50;55.97
62600;BME280;48671;48.922;2.346;2023-08-17T02:38:48;101537.03;;;24.43;55.42
62600;BME280;48671;48.922;2.346;2023-08-17T02:41:14;101544.19;;;24.31;56.10
62600;BME280;48671;48.922;2.346;2023-08-17T02:43:39;101538.66;;;24.23;57.38
62600;BME280;48671;48.922;2.346;2023-08-17T02:46:04;101530.59;;;24.13;56.62
62600;BME280;48671;48.922;2.346;2023-08-17T02:48:32;101541.69;;;24.18;56.36
62600;BME280;48671;48.922;2.346;2023-08-17T02:50:58;101532.56;;;24.11;56.60
62600;BME280;48671;48.922;2.346;2023-08-17T02:53:23;101541.22;;;24.13;57.36
62600;BME280;48671;48.922;2.346;2023-08-17T02:55:48;101537.41;;;24.06;56.36
62600;BME280;48671;48.922;2.346;2023-08-17T02:58:13;101541.88;;;24.05;57.23
62600;BME280;48671;48.922;2.346;2023-08-17T03:00:39;101538.84;;;24.10;56.95
62600;BME280;48671;48.922;2.346;2023-08-17T03:03:04;101547.75;;;24.20;57.03
62600;BME280;48671;48.922;2.346;2023-08-17T03:05:29;101546.25;;;24.27;56.39
62600;BME280;48671;48.922;2.346;2023-08-17T03:07:55;101548.66;;;24.30;56.49
62600;BME280;48671;48.922;2.346;2023-08-17T03:10:20;101542.00;;;24.36;56.08
62600;BME280;48671;48.922;2.346;2023-08-17T03:12:45;101547.03;;;24.39;56.40
62600;BME280;48671;48.922;2.346;2023-08-17T03:15:11;101535.56;;;24.39;56.03
62600;BME280;48671;48.922;2.346;2023-08-17T03:17:36;101539.56;;;24.44;55.95
62600;BME280;48671;48.922;2.346;2023-08-17T03:20:01;101529.97;;;24.53;55.82
62600;BME280;48671;48.922;2.346;2023-08-17T03:22:27;101536.97;;;24.54;55.84
62600;BME280;48671;48.922;2.346;2023-08-17T03:24:55;101537.38;;;24.49;56.60
62600;BME280;48671;48.922;2.346;2023-08-17T03:27:20;101530.75;;;24.33;56.25
62600;BME280;48671;48.922;2.346;2023-08-17T03:29:45;101532.22;;;24.25;56.49
62600;BME280;48671;48.922;2.346;2023-08-17T03:32:11;101527.38;;;24.30;56.59
62600;BME280;48671;48.922;2.346;2023-08-17T03:34:36;101519.16;;;24.34;56.15
62600;BME280;48671;48.922;2.346;2023-08-17T03:37:01;101506.88;;;24.21;56.49
62600;BME280;48671;48.922;2.346;2023-08-17T03:39:27;101535.47;;;24.29;56.17
62600;BME280;48671;48.922;2.346;2023-08-17T03:41:52;101511.97;;;24.13;56.82
62600;BME280;48671;48.922;2.346;2023-08-17T03:44:18;101526.72;;;24.17;57.46
62600;BME280;48671;48.922;2.346;2023-08-17T03:46:43;101515.63;;;24.12;56.67
62600;BME280;48671;48.922;2.346;2023-08-17T03:49:08;101525.91;;;24.17;56.83
62600;BME280;48671;48.922;2.346;2023-08-17T03:51:34;101532.06;;;24.17;56.91
62600;BME280;48671;48.922;2.346;2023-08-17T03:53:59;101530.22;;;24.18;57.40
62600;BME280;48671;48.922;2.346;2023-08-17T03:56:24;101533.41;;;24.12;56.42
62600;BME280;48671;48.922;2.346;2023-08-17T03:58:52;101537.88;;;24.11;56.80
62600;BME280;48671;48.922;2.346;2023-08-17T04:01:17;101532.56;;;24.11;56.52
62600;BME280;48671;48.922;2.346;2023-08-17T04:03:43;101533.00;;;24.16;56.88
62600;BME280;48671;48.922;2.346;2023-08-17T04:06:08;101532.31;;;24.14;56.88
62600;BME280;48671;48.922;2.346;2023-08-17T04:08:38;101521.53;;;24.16;56.83
62600;BME280;48671;48.922;2.346;2023-08-17T04:11:04;101522.63;;;24.13;56.83
62600;BME280;48671;48.922;2.346;2023-08-17T04:13:30;101522.69;;;24.02;57.05
62600;BME280;48671;48.922;2.346;2023-08-17T04:15:56;101524.03;;;23.96;57.42
62600;BME280;48671;48.922;2.346;2023-08-17T04:18:21;101518.38;;;23.90;57.28
62600;BME280;48671;48.922;2.346;2023-08-17T04:20:46;101515.00;;;23.88;57.44
62600;BME280;48671;48.922;2.346;2023-08-17T04:23:12;101516.75;;;23.77;58.24
62600;BME280;48671;48.922;2.346;2023-08-17T04:25:37;101512.63;;;23.73;57.58
62600;BME280;48671;48.922;2.346;2023-08-17T04:28:03;101510.69;;;23.64;57.84
62600;BME280;48671;48.922;2.346;2023-08-17T04:30:28;101522.53;;;23.60;58.64
62600;BME280;48671;48.922;2.346;2023-08-17T04:32:53;101512.75;;;23.60;58.24
62600;BME280;48671;48.922;2.346;2023-08-17T04:35:19;101509.00;;;23.63;58.66
62600;BME280;48671;48.922;2.346;2023-08-17T04:37:45;101514.56;;;23.60;58.06
62600;BME280;48671;48.922;2.346;2023-08-17T04:40:12;101516.88;;;23.65;57.88
62600;BME280;48671;48.922;2.346;2023-08-17T04:42:38;101508.53;;;23.69;57.96
62600;BME280;48671;48.922;2.346;2023-08-17T04:45:03;101519.66;;;23.74;58.04
62600;BME280;48671;48.922;2.346;2023-08-17T04:47:29;101511.66;;;23.74;57.75
62600;BME280;48671;48.922;2.346;2023-08-17T04:49:54;101510.22;;;23.70;57.96
62600;BME280;48671;48.922;2.346;2023-08-17T04:52:19;101515.28;;;23.62;57.66
62600;BME280;48671;48.922;2.346;2023-08-17T04:54:44;101509.25;;;23.60;58.09
62600;BME280;48671;48.922;2.346;2023-08-17T04:57:10;101506.28;;;23.42;58.03
62600;BME280;48671;48.922;2.346;2023-08-17T04:59:35;101527.16;;;23.47;58.75
62600;BME280;48671;48.922;2.346;2023-08-17T05:02:01;101529.44;;;23.40;59.02
62600;BME280;48671;48.922;2.346;2023-08-17T05:04:26;101523.44;;;23.38;58.73
62600;BME280;48671;48.922;2.346;2023-08-17T05:06:51;101525.47;;;23.34;59.36
62600;BME280;48671;48.922;2.346;2023-08-17T05:09:17;101529.69;;;23.37;58.87
62600;BME280;48671;48.922;2.346;2023-08-17T05:11:42;101521.72;;;23.37;59.14
62600;BME280;48671;48.922;2.346;2023-08-17T05:14:07;101521.63;;;23.39;58.73
62600;BME280;48671;48.922;2.346;2023-08-17T05:16:33;101524.38;;;23.37;59.00
62600;BME280;48671;48.922;2.346;2023-08-17T05:18:58;101521.97;;;23.45;58.75
62600;BME280;48671;48.922;2.346;2023-08-17T05:21:24;101520.41;;;23.43;59.00
62600;BME280;48671;48.922;2.346;2023-08-17T05:23:50;101523.16;;;23.52;58.77
62600;BME280;48671;48.922;2.346;2023-08-17T05:26:15;101519.88;;;23.60;58.53
62600;BME280;48671;48.922;2.346;2023-08-17T05:28:40;101520.34;;;23.65;58.63
62600;BME280;48671;48.922;2.346;2023-08-17T05:31:08;101520.72;;;23.72;58.44
62600;BME280;48671;48.922;2.346;2023-08-17T05:33:33;101519.13;;;23.80;58.25
62600;BME280;48671;48.922;2.346;2023-08-17T05:35:59;101507.88;;;23.88;58.08
62600;BME280;48671;48.922;2.346;2023-08-17T05:38:24;101516.53;;;24.01;57.82
62600;BME280;48671;48.922;2.346;2023-08-17T05:40:56;101507.31;;;24.05;57.78
62600;BME280;48671;48.922;2.346;2023-08-17T05:43:22;101499.91;;;24.09;57.34
62600;BME280;48671;48.922;2.346;2023-08-17T05:45:48;101511.72;;;24.16;57.49
62600;BME280;48671;48.922;2.346;2023-08-17T05:48:13;101504.47;;;24.18;57.19
62600;BME280;48671;48.922;2.346;2023-08-17T05:50:41;101502.00;;;24.05;57.08
62600;BME280;48671;48.922;2.346;2023-08-17T05:53:07;101506.97;;;23.99;57.63
62600;BME280;48671;48.922;2.346;2023-08-17T05:55:32;101502.91;;;23.95;57.33
62600;BME280;48671;48.922;2.346;2023-08-17T05:57:57;101500.81;;;23.98;57.23
62600;BME280;48671;48.922;2.346;2023-08-17T06:00:23;101513.72;;;24.03;57.51
62600;BME280;48671;48.922;2.346;2023-08-17T06:02:48;101499.91;;;24.09;57.35
62600;BME280;48671;48.922;2.346;2023-08-17T06:05:19;101499.88;;;24.20;57.37
62600;BME280;48671;48.922;2.346;2023-08-17T06:07:44;101503.72;;;24.27;56.42
62600;BME280;48671;48.922;2.346;2023-08-17T06:10:10;101505.78;;;24.24;57.00
62600;BME280;48671;48.922;2.346;2023-08-17T06:12:36;101500.22;;;24.27;56.97
62600;BME280;48671;48.922;2.346;2023-08-17T06:15:02;101496.72;;;24.26;56.91
62600;BME280;48671;48.922;2.346;2023-08-17T06:17:28;101493.97;;;24.38;56.48
62600;BME280;48671;48.922;2.346;2023-08-17T06:19:53;101498.19;;;24.40;57.03
62600;BME280;48671;48.922;2.346;2023-08-17T06:22:19;101499.00;;;24.52;56.84
62600;BME280;48671;48.922;2.346;2023-08-17T06:24:44;101498.34;;;24.60;56.72
62600;BME280;48671;48.922;2.346;2023-08-17T06:27:13;101497.38;;;24.61;56.30
62600;BME280;48671;48.922;2.346;2023-08-17T06:29:39;101504.88;;;24.56;56.56
62600;BME280;48671;48.922;2.346;2023-08-17T06:32:04;101501.28;;;24.57;56.65
62600;BME280;48671;48.922;2.346;2023-08-17T06:34:30;101490.09;;;24.63;56.58
62600;BME280;48671;48.922;2.346;2023-08-17T06:36:59;101498.56;;;24.77;56.22
62600;BME280;48671;48.922;2.346;2023-08-17T06:39:24;101496.22;;;24.84;56.52
62600;BME280;48671;48.922;2.346;2023-08-17T06:41:50;101498.66;;;24.97;56.16
62600;BME280;48671;48.922;2.346;2023-08-17T06:44:15;101503.75;;;25.10;56.06
62600;BME280;48671;48.922;2.346;2023-08-17T06:46:41;101493.84;;;25.12;56.02
62600;BME280;48671;48.922;2.346;2023-08-17T06:49:06;101487.94;;;25.08;56.80
62600;BME280;48671;48.922;2.346;2023-08-17T06:51:33;101477.72;;;25.13;55.89
62600;BME280;48671;48.922;2.346;2023-08-17T06:53:59;101490.34;;;25.21;55.93
62600;BME280;48671;48.922;2.346;2023-08-17T06:56:24;101481.09;;;25.15;56.22
62600;BME280;48671;48.922;2.346;2023-08-17T06:58:49;101480.28;;;25.15;56.43
62600;BME280;48671;48.922;2.346;2023-08-17T07:01:15;101486.22;;;25.07;56.99
62600;BME280;48671;48.922;2.346;2023-08-17T07:03:40;101488.63;;;25.10;56.08
62600;BME280;48671;48.922;2.346;2023-08-17T07:06:05;101471.56;;;25.13;56.38
62600;BME280;48671;48.922;2.346;2023-08-17T07:08:30;101474.25;;;25.22;56.03
62600;BME280;48671;48.922;2.346;2023-08-17T07:10:59;101469.22;;;25.29;56.03
62600;BME280;48671;48.922;2.346;2023-08-17T07:13:24;101470.91;;;25.40;55.87
62600;BME280;48671;48.922;2.346;2023-08-17T07:15:50;101470.53;;;25.54;55.50
62600;BME280;48671;48.922;2.346;2023-08-17T07:18:15;101472.22;;;25.55;55.32
62600;BME280;48671;48.922;2.346;2023-08-17T07:20:40;101475.16;;;25.52;55.78
62600;BME280;48671;48.922;2.346;2023-08-17T07:23:06;101469.13;;;25.50;56.03
62600;BME280;48671;48.922;2.346;2023-08-17T07:25:31;101476.72;;;25.64;55.68
62600;BME280;48671;48.922;2.346;2023-08-17T07:27:57;101481.78;;;25.77;55.45
62600;BME280;48671;48.922;2.346;2023-08-17T07:30:23;101476.31;;;25.88;55.02
62600;BME280;48671;48.922;2.346;2023-08-17T07:32:48;101480.94;;;25.96;54.97
62600;BME280;48671;48.922;2.346;2023-08-17T07:35:13;101477.44;;;26.05;55.27
62600;BME280;48671;48.922;2.346;2023-08-17T07:37:39;101483.75;;;26.14;55.56
62600;BME280;48671;48.922;2.346;2023-08-17T07:40:04;101478.69;;;26.21;54.48
62600;BME280;48671;48.922;2.346;2023-08-17T07:42:30;101479.53;;;26.31;54.50
62600;BME280;48671;48.922;2.346;2023-08-17T07:44:55;101480.63;;;26.38;54.65
62600;BME280;48671;48.922;2.346;2023-08-17T07:47:21;101487.34;;;26.52;54.17
62600;BME280;48671;48.922;2.346;2023-08-17T07:49:46;101484.84;;;26.50;54.69
62600;BME280;48671;48.922;2.346;2023-08-17T07:52:11;101486.78;;;26.58;53.96
62600;BME280;48671;48.922;2.346;2023-08-17T07:54:37;101479.91;;;26.65;54.96
62600;BME280;48671;48.922;2.346;2023-08-17T07:57:02;101493.75;;;26.78;53.23
62600;BME280;48671;48.922;2.346;2023-08-17T07:59:28;101488.81;;;26.83;53.68
62600;BME280;48671;48.922;2.346;2023-08-17T08:01:54;101496.47;;;26.96;53.65
62600;BME280;48671;48.922;2.346;2023-08-17T08:04:19;101493.94;;;27.04;52.97
62600;BME280;48671;48.922;2.346;2023-08-17T08:06:45;101494.88;;;27.13;53.68
62600;BME280;48671;48.922;2.346;2023-08-17T08:09:10;101493.28;;;27.20;53.31
62600;BME280;48671;48.922;2.346;2023-08-17T08:11:36;101489.19;;;27.26;52.79
62600;BME280;48671;48.922;2.346;2023-08-17T08:14:01;101489.91;;;27.28;52.17
62600;BME280;48671;48.922;2.346;2023-08-17T08:16:27;101478.06;;;27.30;52.24
62600;BME280;48671;48.922;2.346;2023-08-17T08:18:55;101483.66;;;27.37;53.09
62600;BME280;48671;48.922;2.346;2023-08-17T08:21:20;101485.94;;;27.50;52.74
62600;BME280;48671;48.922;2.346;2023-08-17T08:23:46;101494.28;;;27.65;52.15
62600;BME280;48671;48.922;2.346;2023-08-17T08:26:11;101486.34;;;27.73;51.90
62600;BME280;48671;48.922;2.346;2023-08-17T08:28:37;101485.38;;;27.92;50.94
62600;BME280;48671;48.922;2.346;2023-08-17T08:31:02;101486.69;;;28.32;50.39
62600;BME280;48671;48.922;2.346;2023-08-17T08:33:31;101483.28;;;28.74;50.18
62600;BME280;48671;48.922;2.346;2023-08-17T08:35:56;101483.19;;;29.17;49.33
62600;BME280;48671;48.922;2.346;2023-08-17T08:38:22;101478.56;;;29.52;48.78
62600;BME280;48671;48.922;2.346;2023-08-17T08:40:47;101489.03;;;29.80;47.70
62600;BME280;48671;48.922;2.346;2023-08-17T08:43:14;101475.81;;;30.03;47.13
62600;BME280;48671;48.922;2.346;2023-08-17T08:45:41;101489.88;;;30.21;46.74
62600;BME280;48671;48.922;2.346;2023-08-17T08:48:08;101485.53;;;30.28;45.66
62600;BME280;48671;48.922;2.346;2023-08-17T08:50:35;101494.56;;;30.11;44.69
62600;BME280;48671;48.922;2.346;2023-08-17T08:53:02;101488.38;;;30.02;46.14
62600;BME280;48671;48.922;2.346;2023-08-17T08:55:31;101488.53;;;30.01;45.76
62600;BME280;48671;48.922;2.346;2023-08-17T08:57:59;101479.31;;;29.95;45.94
62600;BME280;48671;48.922;2.346;2023-08-17T09:00:25;101487.88;;;29.82;46.66
62600;BME280;48671;48.922;2.346;2023-08-17T09:02:51;101489.53;;;29.83;45.51
62600;BME280;48671;48.922;2.346;2023-08-17T09:05:18;101492.88;;;29.77;46.31
62600;BME280;48671;48.922;2.346;2023-08-17T09:07:44;101484.50;;;29.72;45.98
62600;BME280;48671;48.922;2.346;2023-08-17T09:10:10;101480.59;;;29.58;46.26
62600;BME280;48671;48.922;2.346;2023-08-17T09:12:36;101488.28;;;29.37;46.39
62600;BME280;48671;48.922;2.346;2023-08-17T09:15:01;101481.16;;;29.20;47.15
62600;BME280;48671;48.922;2.346;2023-08-17T09:17:27;101472.66;;;29.24;47.34
62600;BME280;48671;48.922;2.346;2023-08-17T09:19:53;101473.16;;;29.28;47.61
62600;BME280;48671;48.922;2.346;2023-08-17T09:22:23;101477.19;;;29.32;47.96
62600;BME280;48671;48.922;2.346;2023-08-17T09:24:49;101477.38;;;29.30;47.93
62600;BME280;48671;48.922;2.346;2023-08-17T09:27:14;101462.25;;;29.29;46.68
62600;BME280;48671;48.922;2.346;2023-08-17T09:29:42;101464.47;;;29.34;47.44
62600;BME280;48671;48.922;2.346;2023-08-17T09:32:08;101467.84;;;29.44;47.11
62600;BME280;48671;48.922;2.346;2023-08-17T09:34:35;101462.47;;;29.52;47.07
62600;BME280;48671;48.922;2.346;2023-08-17T09:37:03;101464.88;;;29.63;46.53
62600;BME280;48671;48.922;2.346;2023-08-17T09:39:32;101463.19;;;29.62;46.64
62600;BME280;48671;48.922;2.346;2023-08-17T09:41:59;101471.09;;;29.72;46.85
62600;BME280;48671;48.922;2.346;2023-08-17T09:44:24;101467.09;;;29.76;46.15
62600;BME280;48671;48.922;2.346;2023-08-17T09:46:50;101466.91;;;29.78;45.31
62600;BME280;48671;48.922;2.346;2023-08-17T09:49:17;101464.72;;;29.73;45.74
62600;BME280;48671;48.922;2.346;2023-08-17T09:51:43;101459.19;;;29.83;46.05
62600;BME280;48671;48.922;2.346;2023-08-17T09:54:20;101449.47;;;29.90;45.79
62600;BME280;48671;48.922;2.346;2023-08-17T09:56:46;101454.00;;;30.06;45.04
62600;BME280;48671;48.922;2.346;2023-08-17T09:59:11;101452.97;;;30.15;44.99
62600;BME280;48671;48.922;2.346;2023-08-17T10:01:36;101456.34;;;30.25;44.45
62600;BME280;48671;48.922;2.346;2023-08-17T10:04:02;101444.41;;;30.36;44.50
62600;BME280;48671;48.922;2.346;2023-08-17T10:06:30;101449.25;;;30.41;44.85
62600;BME280;48671;48.922;2.346;2023-08-17T10:08:58;101446.03;;;30.53;43.98
62600;BME280;48671;48.922;2.346;2023-08-17T10:11:24;101442.84;;;30.58;43.58
62600;BME280;48671;48.922;2.346;2023-08-17T10:14:02;101441.47;;;30.62;43.56
62600;BME280;48671;48.922;2.346;2023-08-17T10:16:36;101438.59;;;30.72;43.15
62600;BME280;48671;48.922;2.346;2023-08-17T10:21:57;101429.19;;;30.84;43.48
62600;BME280;48671;48.922;2.346;2023-08-17T10:24:26;101428.75;;;31.04;42.29
62600;BME280;48671;48.922;2.346;2023-08-17T10:26:52;101429.34;;;31.14;42.25
62600;BME280;48671;48.922;2.346;2023-08-17T10:29:21;101429.41;;;31.29;42.15
62600;BME280;48671;48.922;2.346;2023-08-17T10:31:48;101423.94;;;31.45;40.76
62600;BME280;48671;48.922;2.346;2023-08-17T10:34:14;101418.78;;;31.43;41.70
62600;BME280;48671;48.922;2.346;2023-08-17T10:36:41;101420.19;;;31.54;41.62
62600;BME280;48671;48.922;2.346;2023-08-17T10:39:27;101426.63;;;31.68;40.05
62600;BME280;48671;48.922;2.346;2023-08-17T10:41:53;101414.63;;;31.79;40.88
62600;BME280;48671;48.922;2.346;2023-08-17T10:44:38;101415.97;;;31.98;40.32
62600;BME280;48671;48.922;2.346;2023-08-17T10:47:22;101398.56;;;32.08;40.04
62600;BME280;48671;48.922;2.346;2023-08-17T10:49:55;101409.59;;;32.13;40.02
62600;BME280;48671;48.922;2.346;2023-08-17T10:52:31;101408.03;;;32.19;39.54
62600;BME280;48671;48.922;2.346;2023-08-17T10:54:59;101406.81;;;32.22;38.42
62600;BME280;48671;48.922;2.346;2023-08-17T10:57:28;101408.50;;;32.23;37.48
62600;BME280;48671;48.922;2.346;2023-08-17T11:08:38;101379.56;;;32.76;39.15
62600;BME280;48671;48.922;2.346;2023-08-17T11:11:09;101384.41;;;32.80;38.81
62600;BME280;48671;48.922;2.346;2023-08-17T11:13:42;101398.66;;;32.96;38.29
62600;BME280;48671;48.922;2.346;2023-08-17T11:38:43;101382.22;;;33.48;36.50
62600;BME280;48671;48.922;2.346;2023-08-17T11:41:10;101405.09;;;33.74;35.36
62600;BME280;48671;48.922;2.346;2023-08-17T11:43:36;101381.00;;;33.72;34.65
62600;BME280;48671;48.922;2.346;2023-08-17T11:46:02;101372.75;;;33.80;34.41
62600;BME280;48671;48.922;2.346;2023-08-17T11:48:28;101370.25;;;33.79;33.17
62600;BME280;48671;48.922;2.346;2023-08-17T12:01:12;101376.19;;;33.96;30.83
62600;BME280;48671;48.922;2.346;2023-08-17T12:03:39;101384.47;;;33.94;31.10
62600;BME280;48671;48.922;2.346;2023-08-17T12:06:05;101385.47;;;33.87;31.88
62600;BME280;48671;48.922;2.346;2023-08-17T12:08:31;101366.38;;;33.88;32.42
62600;BME280;48671;48.922;2.346;2023-08-17T12:10:56;101386.09;;;34.17;30.56
62600;BME280;48671;48.922;2.346;2023-08-17T12:13:30;101368.97;;;34.31;31.18
62600;BME280;48671;48.922;2.346;2023-08-17T12:15:55;101368.59;;;34.41;31.05
62600;BME280;48671;48.922;2.346;2023-08-17T12:18:22;101355.94;;;34.48;31.02
62600;BME280;48671;48.922;2.346;2023-08-17T12:25:54;101341.47;;;34.69;32.00
62600;BME280;48671;48.922;2.346;2023-08-17T12:28:20;101327.56;;;34.72;31.97
62600;BME280;48671;48.922;2.346;2023-08-17T12:38:31;101333.66;;;34.94;30.98
62600;BME280;48671;48.922;2.346;2023-08-17T12:48:42;101327.88;;;35.04;29.95
62600;BME280;48671;48.922;2.346;2023-08-17T12:51:07;101329.13;;;35.14;30.65
62600;BME280;48671;48.922;2.346;2023-08-17T12:53:33;101325.59;;;35.34;31.01
62600;BME280;48671;48.922;2.346;2023-08-17T12:55:58;101322.06;;;35.47;30.33
62600;BME280;48671;48.922;2.346;2023-08-17T12:58:24;101334.97;;;35.71;30.42
62600;BME280;48671;48.922;2.346;2023-08-17T13:24:29;101298.97;;;36.29;27.37
62600;BME280;48671;48.922;2.346;2023-08-17T13:32:05;101290.31;;;36.14;28.86
62600;BME280;48671;48.922;2.346;2023-08-17T13:42:29;101298.38;;;36.72;27.87
62600;BME280;48671;48.922;2.346;2023-08-17T13:44:54;101297.00;;;36.88;28.41
62600;BME280;48671;48.922;2.346;2023-08-17T13:47:20;101277.69;;;36.77;27.57
62600;BME280;48671;48.922;2.346;2023-08-17T13:55:15;101288.53;;;36.32;27.56
62600;BME280;48671;48.922;2.346;2023-08-17T13:57:40;101287.47;;;36.40;28.28
62600;BME280;48671;48.922;2.346;2023-08-17T14:00:09;101271.03;;;36.35;27.95
62600;BME280;48671;48.922;2.346;2023-08-17T14:02:35;101285.16;;;36.50;28.41
62600;BME280;48671;48.922;2.346;2023-08-17T14:10:11;101263.91;;;36.79;27.21
62600;BME280;48671;48.922;2.346;2023-08-17T14:12:36;101262.53;;;36.70;27.69
62600;BME280;48671;48.922;2.346;2023-08-17T14:15:02;101278.22;;;36.93;27.42
62600;BME280;48671;48.922;2.346;2023-08-17T14:17:28;101248.13;;;36.94;26.80
62600;BME280;48671;48.922;2.346;2023-08-17T14:19:53;101256.56;;;36.86;27.28
62600;BME280;48671;48.922;2.346;2023-08-17T14:22:19;101260.09;;;36.87;27.92
62600;BME280;48671;48.922;2.346;2023-08-17T14:25:05;101247.06;;;36.70;27.47
62600;BME280;48671;48.922;2.346;2023-08-17T14:27:53;101251.28;;;36.66;27.56
62600;BME280;48671;48.922;2.346;2023-08-17T14:30:20;101250.38;;;36.72;27.26
62600;BME280;48671;48.922;2.346;2023-08-17T14:32:50;101247.47;;;36.74;27.79
62600;BME280;48671;48.922;2.346;2023-08-17T14:35:17;101246.09;;;36.90;27.26
62600;BME280;48671;48.922;2.346;2023-08-17T14:37:42;101249.63;;;36.90;26.68
62600;BME280;48671;48.922;2.346;2023-08-17T14:40:08;101260.75;;;36.82;26.87
62600;BME280;48671;48.922;2.346;2023-08-17T14:42:33;101255.25;;;36.89;26.90